sensor_id;sensor_type;location;lat;lon;timestamp;P1;durP1;ratioP1;P2;durP2;ratioP2
19179;SDS011;9722;48.754;8.868;2023-12-04T00:02:38;9.80;;;8.80;;
19179;SDS011;9722;48.754;8.868;2023-12-04T00:05:59;12.40;;;9.13;;
19179;SDS011;9722;48.754;8.868;2023-12-04T00:09:19;11.93;;;9.13;;
19179;SDS011;9722;48.754;8.868;2023-12-04T00:12:40;11.43;;;9.47;;
19179;SDS011;9722;48.754;8.868;2023-12-04T00:16:00;11.77;;;8.97;;
19179;SDS011;9722;48.754;8.868;2023-12-04T00:19:21;10.63;;;9.40;;
19179;SDS011;9722;48.754;8.868;2023-12-04T00:22:41;14.13;;;9.93;;
19179;SDS011;9722;48.754;8.868;2023-12-04T00:26:02;10.93;;;8.00;;
19179;SDS011;9722;48.754;8.868;2023-12-04T00:29:22;11.30;;;9.13;;
19179;SDS011;9722;48.754;8.868;2023-12-04T00:32:43;10.17;;;9.17;;
19179;SDS011;9722;48.754;8.868;2023-12-04T00:36:03;9.50;;;8.10;;
19179;SDS011;9722;48.754;8.868;2023-12-04T00:39:24;9.40;;;7.93;;
19179;SDS011;9722;48.754;8.868;2023-12-04T00:42:45;9.37;;;8.13;;
19179;SDS011;9722;48.754;8.868;2023-12-04T00:46:05;10.73;;;9.10;;
19179;SDS011;9722;48.754;8.868;2023-12-04T00:49:26;12.83;;;8.90;;
19179;SDS011;9722;48.754;8.868;2023-12-04T00:52:46;11.67;;;8.23;;
19179;SDS011;9722;48.754;8.868;2023-12-04T00:56:08;6.03;;;5.47;;
19179;SDS011;9722;48.754;8.868;2023-12-04T00:59:29;13.40;;;9.20;;
19179;SDS011;9722;48.754;8.868;2023-12-04T01:02:51;10.23;;;8.13;;
19179;SDS011;9722;48.754;8.868;2023-12-04T01:06:19;11.13;;;8.23;;
19179;SDS011;9722;48.754;8.868;2023-12-04T01:09:42;10.70;;;7.27;;
19179;SDS011;9722;48.754;8.868;2023-12-04T01:13:02;12.83;;;8.40;;
19179;SDS011;9722;48.754;8.868;2023-12-04T01:16:23;10.13;;;7.87;;
19179;SDS011;9722;48.754;8.868;2023-12-04T01:19:44;8.03;;;6.67;;
19179;SDS011;9722;48.754;8.868;2023-12-04T01:23:04;10.60;;;8.03;;
19179;SDS011;9722;48.754;8.868;2023-12-04T01:26:25;8.03;;;6.73;;
19179;SDS011;9722;48.754;8.868;2023-12-04T01:29:45;9.40;;;8.13;;
19179;SDS011;9722;48.754;8.868;2023-12-04T01:33:05;8.17;;;7.37;;
19179;SDS011;9722;48.754;8.868;2023-12-04T01:36:28;9.70;;;8.00;;
19179;SDS011;9722;48.754;8.868;2023-12-04T01:39:48;11.83;;;8.80;;
19179;SDS011;9722;48.754;8.868;2023-12-04T01:43:09;12.23;;;8.67;;
19179;SDS011;9722;48.754;8.868;2023-12-04T01:46:29;13.63;;;8.73;;
19179;SDS011;9722;48.754;8.868;2023-12-04T01:49:50;12.20;;;8.93;;
19179;SDS011;9722;48.754;8.868;2023-12-04T01:53:11;10.70;;;7.33;;
19179;SDS011;9722;48.754;8.868;2023-12-04T01:56:32;9.13;;;8.00;;
19179;SDS011;9722;48.754;8.868;2023-12-04T01:59:54;8.40;;;7.30;;
19179;SDS011;9722;48.754;8.868;2023-12-04T02:03:15;8.77;;;7.67;;
19179;SDS011;9722;48.754;8.868;2023-12-04T02:06:36;10.20;;;7.43;;
19179;SDS011;9722;48.754;8.868;2023-12-04T02:09:57;14.07;;;8.17;;
19179;SDS011;9722;48.754;8.868;2023-12-04T02:13:17;9.57;;;7.27;;
19179;SDS011;9722;48.754;8.868;2023-12-04T02:16:40;10.23;;;8.20;;
19179;SDS011;9722;48.754;8.868;2023-12-04T02:20:02;12.40;;;7.77;;
19179;SDS011;9722;48.754;8.868;2023-12-04T02:23:25;10.50;;;7.80;;
19179;SDS011;9722;48.754;8.868;2023-12-04T02:26:51;9.57;;;6.60;;
19179;SDS011;9722;48.754;8.868;2023-12-04T02:30:14;8.00;;;6.57;;
19179;SDS011;9722;48.754;8.868;2023-12-04T02:33:38;8.93;;;7.00;;
19179;SDS011;9722;48.754;8.868;2023-12-04T02:37:00;10.13;;;7.07;;
19179;SDS011;9722;48.754;8.868;2023-12-04T02:40:22;7.13;;;5.73;;
19179;SDS011;9722;48.754;8.868;2023-12-04T02:43:43;9.07;;;5.83;;
19179;SDS011;9722;48.754;8.868;2023-12-04T02:47:03;8.77;;;6.90;;
19179;SDS011;9722;48.754;8.868;2023-12-04T02:50:24;9.23;;;6.93;;
19179;SDS011;9722;48.754;8.868;2023-12-04T02:53:44;8.17;;;6.23;;
19179;SDS011;9722;48.754;8.868;2023-12-04T02:57:05;7.73;;;6.30;;
19179;SDS011;9722;48.754;8.868;2023-12-04T03:00:25;8.73;;;6.23;;
19179;SDS011;9722;48.754;8.868;2023-12-04T03:03:46;7.80;;;5.97;;
19179;SDS011;9722;48.754;8.868;2023-12-04T03:07:06;7.37;;;6.10;;
19179;SDS011;9722;48.754;8.868;2023-12-04T03:10:27;10.23;;;6.67;;
19179;SDS011;9722;48.754;8.868;2023-12-04T03:13:47;10.23;;;6.50;;
19179;SDS011;9722;48.754;8.868;2023-12-04T03:17:08;8.63;;;6.47;;
19179;SDS011;9722;48.754;8.868;2023-12-04T03:20:28;7.80;;;5.97;;
19179;SDS011;9722;48.754;8.868;2023-12-04T03:23:49;6.63;;;6.00;;
19179;SDS011;9722;48.754;8.868;2023-12-04T03:27:09;8.43;;;7.07;;
19179;SDS011;9722;48.754;8.868;2023-12-04T03:30:30;7.53;;;6.40;;
19179;SDS011;9722;48.754;8.868;2023-12-04T03:33:50;7.73;;;6.63;;
19179;SDS011;9722;48.754;8.868;2023-12-04T03:37:11;7.13;;;6.13;;
19179;SDS011;9722;48.754;8.868;2023-12-04T03:40:31;9.93;;;7.10;;
19179;SDS011;9722;48.754;8.868;2023-12-04T03:43:52;6.40;;;5.80;;
19179;SDS011;9722;48.754;8.868;2023-12-04T03:47:12;8.80;;;6.63;;
19179;SDS011;9722;48.754;8.868;2023-12-04T03:50:33;9.27;;;6.63;;
19179;SDS011;9722;48.754;8.868;2023-12-04T03:53:53;9.73;;;6.47;;
19179;SDS011;9722;48.754;8.868;2023-12-04T03:57:14;9.00;;;7.27;;
19179;SDS011;9722;48.754;8.868;2023-12-04T04:00:34;7.70;;;6.23;;
19179;SDS011;9722;48.754;8.868;2023-12-04T04:03:55;7.03;;;6.30;;
19179;SDS011;9722;48.754;8.868;2023-12-04T04:07:16;8.67;;;7.50;;
19179;SDS011;9722;48.754;8.868;2023-12-04T04:10:39;7.57;;;6.27;;
19179;SDS011;9722;48.754;8.868;2023-12-04T04:14:00;8.07;;;6.90;;
19179;SDS011;9722;48.754;8.868;2023-12-04T04:17:20;8.87;;;6.80;;
19179;SDS011;9722;48.754;8.868;2023-12-04T04:20:41;10.93;;;6.53;;
19179;SDS011;9722;48.754;8.868;2023-12-04T04:24:02;7.53;;;5.93;;
19179;SDS011;9722;48.754;8.868;2023-12-04T04:27:22;8.60;;;6.07;;
19179;SDS011;9722;48.754;8.868;2023-12-04T04:30:43;8.63;;;6.73;;
19179;SDS011;9722;48.754;8.868;2023-12-04T04:34:03;8.47;;;6.73;;
19179;SDS011;9722;48.754;8.868;2023-12-04T04:37:24;8.23;;;6.40;;
19179;SDS011;9722;48.754;8.868;2023-12-04T04:40:44;10.47;;;6.73;;
19179;SDS011;9722;48.754;8.868;2023-12-04T04:44:05;10.60;;;7.40;;
19179;SDS011;9722;48.754;8.868;2023-12-04T04:47:26;8.13;;;6.50;;
19179;SDS011;9722;48.754;8.868;2023-12-04T04:50:46;8.30;;;6.40;;
19179;SDS011;9722;48.754;8.868;2023-12-04T04:54:07;8.53;;;6.37;;
19179;SDS011;9722;48.754;8.868;2023-12-04T04:57:28;9.23;;;6.30;;
19179;SDS011;9722;48.754;8.868;2023-12-04T05:00:48;9.80;;;6.23;;
19179;SDS011;9722;48.754;8.868;2023-12-04T05:04:09;6.13;;;5.47;;
19179;SDS011;9722;48.754;8.868;2023-12-04T05:07:29;5.63;;;4.93;;
19179;SDS011;9722;48.754;8.868;2023-12-04T05:10:50;6.40;;;5.70;;
19179;SDS011;9722;48.754;8.868;2023-12-04T05:14:10;7.23;;;6.07;;
19179;SDS011;9722;48.754;8.868;2023-12-04T05:17:31;10.67;;;6.97;;
19179;SDS011;9722;48.754;8.868;2023-12-04T05:20:51;11.03;;;6.73;;
19179;SDS011;9722;48.754;8.868;2023-12-04T05:24:12;7.00;;;6.17;;
19179;SDS011;9722;48.754;8.868;2023-12-04T05:27:32;6.90;;;6.00;;
19179;SDS011;9722;48.754;8.868;2023-12-04T05:30:53;9.53;;;7.07;;
19179;SDS011;9722;48.754;8.868;2023-12-04T05:34:13;10.30;;;8.03;;
19179;SDS011;9722;48.754;8.868;2023-12-04T05:37:34;11.47;;;8.87;;
19179;SDS011;9722;48.754;8.868;2023-12-04T05:40:54;11.13;;;7.20;;
19179;SDS011;9722;48.754;8.868;2023-12-04T05:44:15;7.67;;;6.43;;
19179;SDS011;9722;48.754;8.868;2023-12-04T05:47:35;9.53;;;7.70;;
19179;SDS011;9722;48.754;8.868;2023-12-04T05:50:56;6.03;;;5.40;;
19179;SDS011;9722;48.754;8.868;2023-12-04T05:54:16;5.83;;;5.30;;
19179;SDS011;9722;48.754;8.868;2023-12-04T05:57:38;7.40;;;6.37;;
19179;SDS011;9722;48.754;8.868;2023-12-04T06:00:59;7.10;;;5.90;;
19179;SDS011;9722;48.754;8.868;2023-12-04T06:04:19;5.90;;;5.30;;
19179;SDS011;9722;48.754;8.868;2023-12-04T06:07:40;4.93;;;4.43;;
19179;SDS011;9722;48.754;8.868;2023-12-04T06:11:01;6.73;;;5.30;;
19179;SDS011;9722;48.754;8.868;2023-12-04T06:14:21;5.87;;;5.37;;
19179;SDS011;9722;48.754;8.868;2023-12-04T06:17:42;7.13;;;5.50;;
19179;SDS011;9722;48.754;8.868;2023-12-04T06:21:02;9.00;;;6.40;;
19179;SDS011;9722;48.754;8.868;2023-12-04T06:24:23;6.10;;;5.17;;
19179;SDS011;9722;48.754;8.868;2023-12-04T06:27:44;6.60;;;5.43;;
19179;SDS011;9722;48.754;8.868;2023-12-04T06:31:05;6.03;;;5.43;;
19179;SDS011;9722;48.754;8.868;2023-12-04T06:34:26;8.53;;;6.77;;
19179;SDS011;9722;48.754;8.868;2023-12-04T06:37:48;6.13;;;5.53;;
19179;SDS011;9722;48.754;8.868;2023-12-04T06:41:10;6.70;;;5.80;;
19179;SDS011;9722;48.754;8.868;2023-12-04T06:44:31;5.37;;;4.80;;
19179;SDS011;9722;48.754;8.868;2023-12-04T06:47:52;6.27;;;5.23;;
19179;SDS011;9722;48.754;8.868;2023-12-04T06:51:14;6.40;;;4.90;;
19179;SDS011;9722;48.754;8.868;2023-12-04T06:54:34;9.90;;;7.13;;
19179;SDS011;9722;48.754;8.868;2023-12-04T06:57:55;7.53;;;6.47;;
19179;SDS011;9722;48.754;8.868;2023-12-04T07:01:15;6.83;;;6.13;;
19179;SDS011;9722;48.754;8.868;2023-12-04T07:04:36;6.63;;;5.80;;
19179;SDS011;9722;48.754;8.868;2023-12-04T07:07:56;7.57;;;6.60;;
19179;SDS011;9722;48.754;8.868;2023-12-04T07:11:17;9.60;;;7.90;;
19179;SDS011;9722;48.754;8.868;2023-12-04T07:14:37;9.53;;;7.37;;
19179;SDS011;9722;48.754;8.868;2023-12-04T07:17:58;7.53;;;6.27;;
19179;SDS011;9722;48.754;8.868;2023-12-04T07:21:18;8.83;;;7.33;;
19179;SDS011;9722;48.754;8.868;2023-12-04T07:24:39;9.83;;;7.83;;
19179;SDS011;9722;48.754;8.868;2023-12-04T07:28:00;10.63;;;7.50;;
19179;SDS011;9722;48.754;8.868;2023-12-04T07:31:21;8.27;;;7.07;;
19179;SDS011;9722;48.754;8.868;2023-12-04T07:34:41;7.97;;;6.77;;
19179;SDS011;9722;48.754;8.868;2023-12-04T07:38:02;9.27;;;7.40;;
19179;SDS011;9722;48.754;8.868;2023-12-04T07:41:23;6.93;;;5.97;;
19179;SDS011;9722;48.754;8.868;2023-12-04T07:44:43;9.83;;;7.00;;
19179;SDS011;9722;48.754;8.868;2023-12-04T07:48:04;10.43;;;6.90;;
19179;SDS011;9722;48.754;8.868;2023-12-04T07:51:25;7.30;;;6.60;;
19179;SDS011;9722;48.754;8.868;2023-12-04T07:54:45;7.63;;;6.90;;
19179;SDS011;9722;48.754;8.868;2023-12-04T07:58:06;8.73;;;7.60;;
19179;SDS011;9722;48.754;8.868;2023-12-04T08:01:26;7.60;;;6.27;;
19179;SDS011;9722;48.754;8.868;2023-12-04T08:04:47;7.43;;;5.93;;
19179;SDS011;9722;48.754;8.868;2023-12-04T08:08:07;7.60;;;6.33;;
19179;SDS011;9722;48.754;8.868;2023-12-04T08:11:28;11.33;;;7.53;;
19179;SDS011;9722;48.754;8.868;2023-12-04T08:14:48;7.47;;;6.17;;
19179;SDS011;9722;48.754;8.868;2023-12-04T08:18:09;7.47;;;6.10;;
19179;SDS011;9722;48.754;8.868;2023-12-04T08:21:29;10.37;;;7.93;;
19179;SDS011;9722;48.754;8.868;2023-12-04T08:24:52;11.30;;;8.07;;
19179;SDS011;9722;48.754;8.868;2023-12-04T08:28:13;8.70;;;7.23;;
19179;SDS011;9722;48.754;8.868;2023-12-04T08:31:33;9.00;;;7.90;;
19179;SDS011;9722;48.754;8.868;2023-12-04T08:34:54;10.27;;;7.43;;
19179;SDS011;9722;48.754;8.868;2023-12-04T08:38:15;9.20;;;8.30;;
19179;SDS011;9722;48.754;8.868;2023-12-04T08:41:36;8.33;;;7.53;;
19179;SDS011;9722;48.754;8.868;2023-12-04T08:44:56;9.97;;;7.40;;
19179;SDS011;9722;48.754;8.868;2023-12-04T08:48:17;6.50;;;5.90;;
19179;SDS011;9722;48.754;8.868;2023-12-04T08:51:37;8.80;;;6.90;;
19179;SDS011;9722;48.754;8.868;2023-12-04T08:54:58;6.90;;;6.03;;
19179;SDS011;9722;48.754;8.868;2023-12-04T08:58:19;8.20;;;7.03;;
19179;SDS011;9722;48.754;8.868;2023-12-04T09:01:40;7.50;;;6.80;;
19179;SDS011;9722;48.754;8.868;2023-12-04T09:05:00;7.60;;;6.90;;
19179;SDS011;9722;48.754;8.868;2023-12-04T09:08:22;7.30;;;6.57;;
19179;SDS011;9722;48.754;8.868;2023-12-04T09:11:45;8.30;;;7.50;;
19179;SDS011;9722;48.754;8.868;2023-12-04T09:15:07;8.43;;;7.63;;
19179;SDS011;9722;48.754;8.868;2023-12-04T09:18:28;8.00;;;7.23;;
19179;SDS011;9722;48.754;8.868;2023-12-04T09:21:48;7.90;;;6.83;;
19179;SDS011;9722;48.754;8.868;2023-12-04T09:25:09;7.33;;;6.63;;
19179;SDS011;9722;48.754;8.868;2023-12-04T09:28:30;8.63;;;7.13;;
19179;SDS011;9722;48.754;8.868;2023-12-04T09:31:51;9.00;;;7.40;;
19179;SDS011;9722;48.754;8.868;2023-12-04T09:35:12;10.33;;;7.40;;
19179;SDS011;9722;48.754;8.868;2023-12-04T09:38:32;7.90;;;6.57;;
19179;SDS011;9722;48.754;8.868;2023-12-04T09:41:54;7.17;;;5.93;;
19179;SDS011;9722;48.754;8.868;2023-12-04T09:45:15;6.83;;;5.50;;
19179;SDS011;9722;48.754;8.868;2023-12-04T09:48:38;7.00;;;6.30;;
19179;SDS011;9722;48.754;8.868;2023-12-04T09:52:01;6.63;;;6.03;;
19179;SDS011;9722;48.754;8.868;2023-12-04T09:55:24;6.63;;;6.03;;
19179;SDS011;9722;48.754;8.868;2023-12-04T09:58:45;7.90;;;6.83;;
19179;SDS011;9722;48.754;8.868;2023-12-04T10:02:08;7.30;;;6.60;;
19179;SDS011;9722;48.754;8.868;2023-12-04T10:05:29;6.40;;;5.80;;
19179;SDS011;9722;48.754;8.868;2023-12-04T10:08:50;6.63;;;5.93;;
19179;SDS011;9722;48.754;8.868;2023-12-04T10:12:11;6.17;;;5.63;;
19179;SDS011;9722;48.754;8.868;2023-12-04T10:15:32;6.60;;;6.00;;
19179;SDS011;9722;48.754;8.868;2023-12-04T10:18:52;6.83;;;6.13;;
19179;SDS011;9722;48.754;8.868;2023-12-04T10:22:13;8.50;;;6.43;;
19179;SDS011;9722;48.754;8.868;2023-12-04T10:25:34;7.07;;;6.13;;
19179;SDS011;9722;48.754;8.868;2023-12-04T10:28:59;7.20;;;6.50;;
19179;SDS011;9722;48.754;8.868;2023-12-04T10:32:20;5.97;;;5.37;;
19179;SDS011;9722;48.754;8.868;2023-12-04T10:35:41;6.23;;;5.40;;
19179;SDS011;9722;48.754;8.868;2023-12-04T10:39:02;7.77;;;5.80;;
19179;SDS011;9722;48.754;8.868;2023-12-04T10:42:26;6.00;;;5.40;;
19179;SDS011;9722;48.754;8.868;2023-12-04T10:45:48;6.50;;;5.83;;
19179;SDS011;9722;48.754;8.868;2023-12-04T10:49:10;6.60;;;6.00;;
19179;SDS011;9722;48.754;8.868;2023-12-04T10:52:31;7.70;;;5.90;;
19179;SDS011;9722;48.754;8.868;2023-12-04T10:55:53;6.27;;;5.67;;
19179;SDS011;9722;48.754;8.868;2023-12-04T10:59:19;6.67;;;5.97;;
19179;SDS011;9722;48.754;8.868;2023-12-04T11:02:46;6.20;;;5.60;;
19179;SDS011;9722;48.754;8.868;2023-12-04T11:06:08;5.87;;;5.30;;
19179;SDS011;9722;48.754;8.868;2023-12-04T11:09:34;6.33;;;5.73;;
19179;SDS011;9722;48.754;8.868;2023-12-04T11:13:12;6.77;;;6.17;;
19179;SDS011;9722;48.754;8.868;2023-12-04T11:16:54;7.50;;;5.83;;
19179;SDS011;9722;48.754;8.868;2023-12-04T11:20:22;8.53;;;6.13;;
19179;SDS011;9722;48.754;8.868;2023-12-04T11:23:47;7.40;;;6.50;;
19179;SDS011;9722;48.754;8.868;2023-12-04T11:27:08;7.23;;;6.53;;
19179;SDS011;9722;48.754;8.868;2023-12-04T11:30:29;12.33;;;8.53;;
19179;SDS011;9722;48.754;8.868;2023-12-04T11:33:50;8.90;;;7.97;;
19179;SDS011;9722;48.754;8.868;2023-12-04T11:37:10;10.33;;;8.00;;
19179;SDS011;9722;48.754;8.868;2023-12-04T11:40:31;8.83;;;7.63;;
19179;SDS011;9722;48.754;8.868;2023-12-04T11:43:52;8.13;;;7.33;;
19179;SDS011;9722;48.754;8.868;2023-12-04T11:47:14;9.07;;;7.97;;
19179;SDS011;9722;48.754;8.868;2023-12-04T11:50:35;11.10;;;7.50;;
19179;SDS011;9722;48.754;8.868;2023-12-04T11:53:58;7.60;;;6.80;;
19179;SDS011;9722;48.754;8.868;2023-12-04T11:57:19;8.00;;;7.20;;
19179;SDS011;9722;48.754;8.868;2023-12-04T12:00:42;7.50;;;6.67;;
19179;SDS011;9722;48.754;8.868;2023-12-04T12:04:06;7.97;;;7.03;;
19179;SDS011;9722;48.754;8.868;2023-12-04T12:07:27;9.50;;;6.93;;
19179;SDS011;9722;48.754;8.868;2023-12-04T12:10:47;7.00;;;6.30;;
19179;SDS011;9722;48.754;8.868;2023-12-04T12:14:08;7.67;;;6.87;;
19179;SDS011;9722;48.754;8.868;2023-12-04T12:17:28;11.97;;;6.57;;
19179;SDS011;9722;48.754;8.868;2023-12-04T12:20:50;6.90;;;6.30;;
19179;SDS011;9722;48.754;8.868;2023-12-04T12:24:11;9.40;;;6.20;;
19179;SDS011;9722;48.754;8.868;2023-12-04T12:27:32;8.97;;;6.30;;
19179;SDS011;9722;48.754;8.868;2023-12-04T12:30:52;8.57;;;6.50;;
19179;SDS011;9722;48.754;8.868;2023-12-04T12:34:13;6.50;;;5.90;;
19179;SDS011;9722;48.754;8.868;2023-12-04T12:37:34;6.20;;;5.67;;
19179;SDS011;9722;48.754;8.868;2023-12-04T12:40:55;6.83;;;6.20;;
19179;SDS011;9722;48.754;8.868;2023-12-04T12:44:15;6.43;;;5.83;;
19179;SDS011;9722;48.754;8.868;2023-12-04T12:47:36;7.33;;;6.47;;
19179;SDS011;9722;48.754;8.868;2023-12-04T12:50:57;7.23;;;5.30;;
19179;SDS011;9722;48.754;8.868;2023-12-04T12:54:17;5.77;;;5.27;;
19179;SDS011;9722;48.754;8.868;2023-12-04T12:57:43;5.47;;;4.47;;
19179;SDS011;9722;48.754;8.868;2023-12-04T13:01:04;5.37;;;4.87;;
19179;SDS011;9722;48.754;8.868;2023-12-04T13:04:25;4.87;;;4.43;;
19179;SDS011;9722;48.754;8.868;2023-12-04T13:07:45;5.20;;;4.70;;
19179;SDS011;9722;48.754;8.868;2023-12-04T13:11:06;9.30;;;5.10;;
19179;SDS011;9722;48.754;8.868;2023-12-04T13:14:27;5.43;;;4.93;;
19179;SDS011;9722;48.754;8.868;2023-12-04T13:17:47;6.47;;;5.50;;
19179;SDS011;9722;48.754;8.868;2023-12-04T13:21:08;6.63;;;5.93;;
19179;SDS011;9722;48.754;8.868;2023-12-04T13:24:30;6.43;;;5.83;;
19179;SDS011;9722;48.754;8.868;2023-12-04T13:27:51;6.17;;;4.97;;
19179;SDS011;9722;48.754;8.868;2023-12-04T13:31:11;5.90;;;5.33;;
19179;SDS011;9722;48.754;8.868;2023-12-04T13:34:32;6.40;;;5.77;;
19179;SDS011;9722;48.754;8.868;2023-12-04T13:37:52;6.67;;;6.07;;
19179;SDS011;9722;48.754;8.868;2023-12-04T13:41:16;6.43;;;5.37;;
19179;SDS011;9722;48.754;8.868;2023-12-04T13:44:55;6.47;;;5.87;;
19179;SDS011;9722;48.754;8.868;2023-12-04T13:48:16;7.13;;;6.43;;
19179;SDS011;9722;48.754;8.868;2023-12-04T13:51:38;6.57;;;5.97;;
19179;SDS011;9722;48.754;8.868;2023-12-04T13:55:00;7.57;;;5.83;;
19179;SDS011;9722;48.754;8.868;2023-12-04T13:58:22;6.10;;;4.87;;
19179;SDS011;9722;48.754;8.868;2023-12-04T14:02:00;5.83;;;4.80;;
19179;SDS011;9722;48.754;8.868;2023-12-04T14:05:24;5.77;;;4.17;;
19179;SDS011;9722;48.754;8.868;2023-12-04T14:08:45;3.93;;;3.63;;
19179;SDS011;9722;48.754;8.868;2023-12-04T14:12:06;3.33;;;2.40;;
19179;SDS011;9722;48.754;8.868;2023-12-04T14:15:27;3.37;;;2.97;;
19179;SDS011;9722;48.754;8.868;2023-12-04T14:18:48;3.17;;;2.87;;
19179;SDS011;9722;48.754;8.868;2023-12-04T14:22:08;3.80;;;3.27;;
19179;SDS011;9722;48.754;8.868;2023-12-04T14:25:29;6.23;;;4.40;;
19179;SDS011;9722;48.754;8.868;2023-12-04T14:28:49;3.30;;;2.97;;
19179;SDS011;9722;48.754;8.868;2023-12-04T14:32:10;2.70;;;2.50;;
19179;SDS011;9722;48.754;8.868;2023-12-04T14:35:30;3.40;;;1.80;;
19179;SDS011;9722;48.754;8.868;2023-12-04T14:38:51;1.87;;;1.60;;
19179;SDS011;9722;48.754;8.868;2023-12-04T14:42:11;2.93;;;1.60;;
19179;SDS011;9722;48.754;8.868;2023-12-04T14:45:32;2.77;;;1.90;;
19179;SDS011;9722;48.754;8.868;2023-12-04T14:48:53;2.10;;;1.90;;
19179;SDS011;9722;48.754;8.868;2023-12-04T14:52:14;2.40;;;2.20;;
19179;SDS011;9722;48.754;8.868;2023-12-04T14:55:34;3.80;;;2.60;;
19179;SDS011;9722;48.754;8.868;2023-12-04T14:59:15;3.97;;;3.10;;
19179;SDS011;9722;48.754;8.868;2023-12-04T15:03:01;4.77;;;2.30;;
19179;SDS011;9722;48.754;8.868;2023-12-04T15:06:27;3.30;;;2.97;;
19179;SDS011;9722;48.754;8.868;2023-12-04T15:10:23;4.57;;;2.70;;
19179;SDS011;9722;48.754;8.868;2023-12-04T15:14:09;3.90;;;2.80;;
19179;SDS011;9722;48.754;8.868;2023-12-04T15:17:50;2.53;;;2.33;;
19179;SDS011;9722;48.754;8.868;2023-12-04T15:21:15;3.70;;;2.93;;
19179;SDS011;9722;48.754;8.868;2023-12-04T15:24:36;7.27;;;4.40;;
19179;SDS011;9722;48.754;8.868;2023-12-04T15:27:57;4.83;;;3.67;;
19179;SDS011;9722;48.754;8.868;2023-12-04T15:31:17;3.13;;;2.90;;
19179;SDS011;9722;48.754;8.868;2023-12-04T15:34:38;2.87;;;2.60;;
19179;SDS011;9722;48.754;8.868;2023-12-04T15:37:58;2.87;;;2.67;;
19179;SDS011;9722;48.754;8.868;2023-12-04T15:41:19;3.30;;;3.00;;
19179;SDS011;9722;48.754;8.868;2023-12-04T15:44:40;2.77;;;2.53;;
19179;SDS011;9722;48.754;8.868;2023-12-04T15:48:01;3.00;;;2.67;;
19179;SDS011;9722;48.754;8.868;2023-12-04T15:51:21;2.97;;;2.67;;
19179;SDS011;9722;48.754;8.868;2023-12-04T15:54:42;2.20;;;2.00;;
19179;SDS011;9722;48.754;8.868;2023-12-04T15:58:02;2.30;;;2.10;;
19179;SDS011;9722;48.754;8.868;2023-12-04T16:01:23;3.30;;;2.57;;
19179;SDS011;9722;48.754;8.868;2023-12-04T16:04:43;3.47;;;3.17;;
19179;SDS011;9722;48.754;8.868;2023-12-04T16:08:04;2.87;;;2.67;;
19179;SDS011;9722;48.754;8.868;2023-12-04T16:11:24;2.53;;;2.13;;
19179;SDS011;9722;48.754;8.868;2023-12-04T16:14:45;3.57;;;2.30;;
19179;SDS011;9722;48.754;8.868;2023-12-04T16:18:05;3.13;;;2.87;;
19179;SDS011;9722;48.754;8.868;2023-12-04T16:21:26;3.43;;;3.10;;
19179;SDS011;9722;48.754;8.868;2023-12-04T16:24:46;3.67;;;3.13;;
19179;SDS011;9722;48.754;8.868;2023-12-04T16:28:07;3.97;;;2.80;;
19179;SDS011;9722;48.754;8.868;2023-12-04T16:31:30;2.57;;;2.37;;
19179;SDS011;9722;48.754;8.868;2023-12-04T16:34:51;3.30;;;3.00;;
19179;SDS011;9722;48.754;8.868;2023-12-04T16:38:11;3.07;;;2.87;;
19179;SDS011;9722;48.754;8.868;2023-12-04T16:41:32;3.03;;;2.70;;
19179;SDS011;9722;48.754;8.868;2023-12-04T16:44:52;2.83;;;2.53;;
19179;SDS011;9722;48.754;8.868;2023-12-04T16:48:13;2.90;;;2.63;;
19179;SDS011;9722;48.754;8.868;2023-12-04T16:51:33;2.90;;;2.57;;
19179;SDS011;9722;48.754;8.868;2023-12-04T16:54:54;3.10;;;2.70;;
19179;SDS011;9722;48.754;8.868;2023-12-04T16:58:15;3.37;;;3.07;;
19179;SDS011;9722;48.754;8.868;2023-12-04T17:01:35;2.97;;;2.57;;
19179;SDS011;9722;48.754;8.868;2023-12-04T17:04:56;3.33;;;2.80;;
19179;SDS011;9722;48.754;8.868;2023-12-04T17:08:16;2.87;;;2.67;;
19179;SDS011;9722;48.754;8.868;2023-12-04T17:11:37;2.13;;;1.93;;
19179;SDS011;9722;48.754;8.868;2023-12-04T17:14:57;2.53;;;2.33;;
19179;SDS011;9722;48.754;8.868;2023-12-04T17:18:18;2.50;;;2.30;;
19179;SDS011;9722;48.754;8.868;2023-12-04T17:21:38;3.10;;;2.80;;
19179;SDS011;9722;48.754;8.868;2023-12-04T17:25:02;2.60;;;2.40;;
19179;SDS011;9722;48.754;8.868;2023-12-04T17:28:23;3.17;;;2.90;;
19179;SDS011;9722;48.754;8.868;2023-12-04T17:31:45;2.80;;;2.60;;
19179;SDS011;9722;48.754;8.868;2023-12-04T17:35:06;3.30;;;2.90;;
19179;SDS011;9722;48.754;8.868;2023-12-04T17:38:27;3.40;;;2.90;;
19179;SDS011;9722;48.754;8.868;2023-12-04T17:41:47;5.37;;;2.97;;
19179;SDS011;9722;48.754;8.868;2023-12-04T17:45:08;3.07;;;2.77;;
19179;SDS011;9722;48.754;8.868;2023-12-04T17:48:28;4.73;;;3.77;;
19179;SDS011;9722;48.754;8.868;2023-12-04T17:51:49;5.00;;;4.00;;
19179;SDS011;9722;48.754;8.868;2023-12-04T17:55:09;3.27;;;2.97;;
19179;SDS011;9722;48.754;8.868;2023-12-04T17:58:30;3.63;;;3.33;;
19179;SDS011;9722;48.754;8.868;2023-12-04T18:01:51;4.63;;;3.83;;
19179;SDS011;9722;48.754;8.868;2023-12-04T18:05:12;4.33;;;3.93;;
19179;SDS011;9722;48.754;8.868;2023-12-04T18:08:32;5.87;;;3.90;;
19179;SDS011;9722;48.754;8.868;2023-12-04T18:11:53;3.80;;;3.47;;
19179;SDS011;9722;48.754;8.868;2023-12-04T18:15:14;4.30;;;3.90;;
19179;SDS011;9722;48.754;8.868;2023-12-04T18:18:35;4.10;;;3.40;;
19179;SDS011;9722;48.754;8.868;2023-12-04T18:21:55;4.30;;;3.37;;
19179;SDS011;9722;48.754;8.868;2023-12-04T18:25:16;3.47;;;3.17;;
19179;SDS011;9722;48.754;8.868;2023-12-04T18:28:37;3.37;;;3.00;;
19179;SDS011;9722;48.754;8.868;2023-12-04T18:31:58;3.83;;;2.80;;
19179;SDS011;9722;48.754;8.868;2023-12-04T18:35:18;3.33;;;3.10;;
19179;SDS011;9722;48.754;8.868;2023-12-04T18:42:12;5.10;;;3.73;;
19179;SDS011;9722;48.754;8.868;2023-12-04T18:45:33;6.63;;;4.50;;
19179;SDS011;9722;48.754;8.868;2023-12-04T18:48:53;5.77;;;3.70;;
19179;SDS011;9722;48.754;8.868;2023-12-04T18:52:15;4.20;;;3.57;;
19179;SDS011;9722;48.754;8.868;2023-12-04T18:55:37;3.53;;;3.23;;
19179;SDS011;9722;48.754;8.868;2023-12-04T18:58:58;4.37;;;3.17;;
19179;SDS011;9722;48.754;8.868;2023-12-04T19:02:21;5.20;;;3.50;;
19179;SDS011;9722;48.754;8.868;2023-12-04T19:05:41;6.17;;;4.50;;
19179;SDS011;9722;48.754;8.868;2023-12-04T19:09:02;5.03;;;3.93;;
19179;SDS011;9722;48.754;8.868;2023-12-04T19:12:23;3.83;;;3.40;;
19179;SDS011;9722;48.754;8.868;2023-12-04T19:15:44;3.77;;;3.47;;
19179;SDS011;9722;48.754;8.868;2023-12-04T19:19:05;4.13;;;3.73;;
19179;SDS011;9722;48.754;8.868;2023-12-04T19:22:25;4.83;;;4.43;;
19179;SDS011;9722;48.754;8.868;2023-12-04T19:25:46;4.30;;;3.50;;
19179;SDS011;9722;48.754;8.868;2023-12-04T19:29:06;5.73;;;4.53;;
19179;SDS011;9722;48.754;8.868;2023-12-04T19:32:27;4.70;;;4.20;;
19179;SDS011;9722;48.754;8.868;2023-12-04T19:35:47;4.00;;;3.70;;
19179;SDS011;9722;48.754;8.868;2023-12-04T19:39:08;3.90;;;3.50;;
19179;SDS011;9722;48.754;8.868;2023-12-04T19:42:28;3.37;;;2.93;;
19179;SDS011;9722;48.754;8.868;2023-12-04T19:45:49;3.80;;;3.50;;
19179;SDS011;9722;48.754;8.868;2023-12-04T19:49:09;3.07;;;2.53;;
19179;SDS011;9722;48.754;8.868;2023-12-04T19:52:31;3.30;;;3.00;;
19179;SDS011;9722;48.754;8.868;2023-12-04T19:55:51;3.90;;;3.60;;
19179;SDS011;9722;48.754;8.868;2023-12-04T19:59:12;3.67;;;3.13;;
19179;SDS011;9722;48.754;8.868;2023-12-04T20:02:32;4.23;;;3.77;;
19179;SDS011;9722;48.754;8.868;2023-12-04T20:05:55;3.20;;;2.87;;
19179;SDS011;9722;48.754;8.868;2023-12-04T20:09:16;3.63;;;3.33;;
19179;SDS011;9722;48.754;8.868;2023-12-04T20:12:36;3.70;;;3.17;;
19179;SDS011;9722;48.754;8.868;2023-12-04T20:15:57;3.33;;;3.03;;
19179;SDS011;9722;48.754;8.868;2023-12-04T20:19:18;3.40;;;3.10;;
19179;SDS011;9722;48.754;8.868;2023-12-04T20:22:38;3.60;;;3.30;;
19179;SDS011;9722;48.754;8.868;2023-12-04T20:25:59;3.60;;;3.30;;
19179;SDS011;9722;48.754;8.868;2023-12-04T20:29:20;4.60;;;3.73;;
19179;SDS011;9722;48.754;8.868;2023-12-04T20:32:41;3.87;;;3.50;;
19179;SDS011;9722;48.754;8.868;2023-12-04T20:36:01;4.13;;;3.80;;